sensor_id;sensor_type;location;lat;lon;timestamp;P1;durP1;ratioP1;P2;durP2;ratioP2
9526;SDS011;4802;51.494;6.770;2023-04-15T00:01:01;3.60;;;1.97;;
9526;SDS011;4802;51.494;6.770;2023-04-15T00:03:31;3.50;;;2.80;;
9526;SDS011;4802;51.494;6.770;2023-04-15T00:06:04;2.53;;;2.43;;
9526;SDS011;4802;51.494;6.770;2023-04-15T00:08:34;3.87;;;3.60;;
9526;SDS011;4802;51.494;6.770;2023-04-15T00:11:03;2.73;;;2.60;;
9526;SDS011;4802;51.494;6.770;2023-04-15T00:13:32;5.20;;;2.87;;
9526;SDS011;4802;51.494;6.770;2023-04-15T00:16:02;5.20;;;4.27;;
9526;SDS011;4802;51.494;6.770;2023-04-15T00:18:31;2.60;;;2.40;;
9526;SDS011;4802;51.494;6.770;2023-04-15T00:21:01;1.73;;;1.63;;
9526;SDS011;4802;51.494;6.770;2023-04-15T00:23:33;2.43;;;2.23;;
9526;SDS011;4802;51.494;6.770;2023-04-15T00:26:03;3.03;;;2.83;;
9526;SDS011;4802;51.494;6.770;2023-04-15T00:28:33;4.27;;;3.10;;
9526;SDS011;4802;51.494;6.770;2023-04-15T00:31:02;3.97;;;3.60;;
9526;SDS011;4802;51.494;6.770;2023-04-15T00:33:31;5.90;;;4.40;;
9526;SDS011;4802;51.494;6.770;2023-04-15T00:36:02;5.60;;;3.70;;
9526;SDS011;4802;51.494;6.770;2023-04-15T00:38:32;5.33;;;4.37;;
9526;SDS011;4802;51.494;6.770;2023-04-15T00:41:02;4.93;;;3.43;;
9526;SDS011;4802;51.494;6.770;2023-04-15T00:43:31;13.10;;;4.80;;
9526;SDS011;4802;51.494;6.770;2023-04-15T00:46:00;3.83;;;3.40;;
9526;SDS011;4802;51.494;6.770;2023-04-15T00:48:29;3.40;;;3.10;;
9526;SDS011;4802;51.494;6.770;2023-04-15T00:50:58;3.50;;;2.83;;
9526;SDS011;4802;51.494;6.770;2023-04-15T00:53:27;3.40;;;3.10;;
9526;SDS011;4802;51.494;6.770;2023-04-15T00:55:58;3.53;;;3.27;;
9526;SDS011;4802;51.494;6.770;2023-04-15T00:58:27;4.20;;;3.37;;
9526;SDS011;4802;51.494;6.770;2023-04-15T01:00:56;9.83;;;3.50;;
9526;SDS011;4802;51.494;6.770;2023-04-15T01:03:26;3.60;;;3.30;;
9526;SDS011;4802;51.494;6.770;2023-04-15T01:05:55;10.00;;;4.83;;
9526;SDS011;4802;51.494;6.770;2023-04-15T01:08:28;4.77;;;4.30;;
9526;SDS011;4802;51.494;6.770;2023-04-15T01:11:01;5.20;;;3.60;;
9526;SDS011;4802;51.494;6.770;2023-04-15T01:13:31;5.53;;;3.30;;
9526;SDS011;4802;51.494;6.770;2023-04-15T01:16:02;3.53;;;3.20;;
9526;SDS011;4802;51.494;6.770;2023-04-15T01:18:31;3.20;;;2.40;;
9526;SDS011;4802;51.494;6.770;2023-04-15T01:21:00;3.03;;;2.77;;
9526;SDS011;4802;51.494;6.770;2023-04-15T01:23:29;2.80;;;2.60;;
9526;SDS011;4802;51.494;6.770;2023-04-15T01:25:59;10.20;;;3.97;;
9526;SDS011;4802;51.494;6.770;2023-04-15T01:28:29;6.53;;;2.00;;
9526;SDS011;4802;51.494;6.770;2023-04-15T01:31:05;4.67;;;3.50;;
9526;SDS011;4802;51.494;6.770;2023-04-15T01:33:34;7.67;;;2.30;;
9526;SDS011;4802;51.494;6.770;2023-04-15T01:36:04;5.80;;;5.20;;
9526;SDS011;4802;51.494;6.770;2023-04-15T01:38:34;3.80;;;3.50;;
9526;SDS011;4802;51.494;6.770;2023-04-15T01:41:04;7.37;;;3.13;;
9526;SDS011;4802;51.494;6.770;2023-04-15T01:43:34;7.30;;;4.00;;
9526;SDS011;4802;51.494;6.770;2023-04-15T01:46:03;1.87;;;1.77;;
9526;SDS011;4802;51.494;6.770;2023-04-15T01:48:32;4.90;;;3.57;;
9526;SDS011;4802;51.494;6.770;2023-04-15T01:51:01;4.20;;;3.90;;
9526;SDS011;4802;51.494;6.770;2023-04-15T01:53:31;3.50;;;3.20;;
9526;SDS011;4802;51.494;6.770;2023-04-15T01:56:00;3.97;;;3.80;;
9526;SDS011;4802;51.494;6.770;2023-04-15T01:58:30;3.43;;;3.23;;
9526;SDS011;4802;51.494;6.770;2023-04-15T02:00:59;4.93;;;3.10;;
9526;SDS011;4802;51.494;6.770;2023-04-15T02:03:29;7.23;;;2.67;;
9526;SDS011;4802;51.494;6.770;2023-04-15T02:05:59;4.10;;;3.50;;
9526;SDS011;4802;51.494;6.770;2023-04-15T02:08:28;5.90;;;3.93;;
9526;SDS011;4802;51.494;6.770;2023-04-15T02:10:57;3.90;;;3.53;;
9526;SDS011;4802;51.494;6.770;2023-04-15T02:13:26;3.13;;;2.93;;
9526;SDS011;4802;51.494;6.770;2023-04-15T02:15:57;2.80;;;2.70;;
9526;SDS011;4802;51.494;6.770;2023-04-15T02:18:26;2.73;;;2.60;;
9526;SDS011;4802;51.494;6.770;2023-04-15T02:20:55;11.80;;;4.17;;
9526;SDS011;4802;51.494;6.770;2023-04-15T02:23:24;7.03;;;4.63;;
9526;SDS011;4802;51.494;6.770;2023-04-15T02:25:53;3.83;;;3.60;;
9526;SDS011;4802;51.494;6.770;2023-04-15T02:28:22;6.07;;;4.87;;
9526;SDS011;4802;51.494;6.770;2023-04-15T02:30:53;2.53;;;2.10;;
9526;SDS011;4802;51.494;6.770;2023-04-15T02:33:24;4.87;;;3.97;;
9526;SDS011;4802;51.494;6.770;2023-04-15T02:35:55;3.87;;;2.93;;
9526;SDS011;4802;51.494;6.770;2023-04-15T02:38:24;4.13;;;3.83;;
9526;SDS011;4802;51.494;6.770;2023-04-15T02:40:53;4.67;;;3.43;;
9526;SDS011;4802;51.494;6.770;2023-04-15T02:43:23;2.50;;;2.40;;
9526;SDS011;4802;51.494;6.770;2023-04-15T02:46:05;4.40;;;4.07;;
9526;SDS011;4802;51.494;6.770;2023-04-15T02:48:36;4.70;;;4.17;;
9526;SDS011;4802;51.494;6.770;2023-04-15T02:51:14;3.43;;;2.70;;
9526;SDS011;4802;51.494;6.770;2023-04-15T02:53:43;8.70;;;3.10;;
9526;SDS011;4802;51.494;6.770;2023-04-15T02:56:15;3.17;;;2.97;;
9526;SDS011;4802;51.494;6.770;2023-04-15T02:58:45;2.00;;;1.90;;
9526;SDS011;4802;51.494;6.770;2023-04-15T03:01:16;5.57;;;3.73;;
9526;SDS011;4802;51.494;6.770;2023-04-15T03:03:47;4.57;;;4.17;;
9526;SDS011;4802;51.494;6.770;2023-04-15T03:06:16;5.50;;;4.07;;
9526;SDS011;4802;51.494;6.770;2023-04-15T03:08:45;5.20;;;4.17;;
9526;SDS011;4802;51.494;6.770;2023-04-15T03:11:14;4.53;;;3.10;;
9526;SDS011;4802;51.494;6.770;2023-04-15T03:13:45;2.53;;;2.17;;
9526;SDS011;4802;51.494;6.770;2023-04-15T03:16:13;1.80;;;1.70;;
9526;SDS011;4802;51.494;6.770;2023-04-15T03:18:43;6.20;;;2.83;;
9526;SDS011;4802;51.494;6.770;2023-04-15T03:21:13;3.13;;;2.97;;
9526;SDS011;4802;51.494;6.770;2023-04-15T03:23:42;2.77;;;2.60;;
9526;SDS011;4802;51.494;6.770;2023-04-15T03:26:22;3.60;;;2.93;;
9526;SDS011;4802;51.494;6.770;2023-04-15T03:28:51;4.30;;;4.00;;
9526;SDS011;4802;51.494;6.770;2023-04-15T03:31:21;4.80;;;4.00;;
9526;SDS011;4802;51.494;6.770;2023-04-15T03:33:49;8.47;;;3.53;;
9526;SDS011;4802;51.494;6.770;2023-04-15T03:36:20;3.50;;;1.73;;
9526;SDS011;4802;51.494;6.770;2023-04-15T03:38:49;2.20;;;2.10;;
9526;SDS011;4802;51.494;6.770;2023-04-15T03:41:18;5.40;;;2.17;;
9526;SDS011;4802;51.494;6.770;2023-04-15T03:43:48;3.90;;;3.50;;
9526;SDS011;4802;51.494;6.770;2023-04-15T03:46:17;2.63;;;2.47;;
9526;SDS011;4802;51.494;6.770;2023-04-15T03:48:50;2.40;;;2.30;;
9526;SDS011;4802;51.494;6.770;2023-04-15T03:51:21;6.17;;;3.40;;
9526;SDS011;4802;51.494;6.770;2023-04-15T03:53:50;3.80;;;3.60;;
9526;SDS011;4802;51.494;6.770;2023-04-15T03:56:20;4.10;;;2.97;;
9526;SDS011;4802;51.494;6.770;2023-04-15T03:58:49;5.00;;;3.50;;
9526;SDS011;4802;51.494;6.770;2023-04-15T04:01:18;3.70;;;2.47;;
9526;SDS011;4802;51.494;6.770;2023-04-15T04:03:47;4.70;;;4.30;;
9526;SDS011;4802;51.494;6.770;2023-04-15T04:06:16;2.70;;;2.57;;
9526;SDS011;4802;51.494;6.770;2023-04-15T04:08:46;4.67;;;2.50;;
9526;SDS011;4802;51.494;6.770;2023-04-15T04:11:16;3.93;;;2.97;;
9526;SDS011;4802;51.494;6.770;2023-04-15T04:13:46;12.23;;;3.63;;
9526;SDS011;4802;51.494;6.770;2023-04-15T04:16:15;2.50;;;2.40;;
9526;SDS011;4802;51.494;6.770;2023-04-15T04:18:44;3.27;;;3.00;;
9526;SDS011;4802;51.494;6.770;2023-04-15T04:21:14;2.53;;;1.90;;
9526;SDS011;4802;51.494;6.770;2023-04-15T04:23:43;6.90;;;4.83;;
9526;SDS011;4802;51.494;6.770;2023-04-15T04:26:14;4.10;;;3.80;;
9526;SDS011;4802;51.494;6.770;2023-04-15T04:28:43;5.37;;;3.10;;
9526;SDS011;4802;51.494;6.770;2023-04-15T04:31:13;4.17;;;3.77;;
9526;SDS011;4802;51.494;6.770;2023-04-15T04:33:42;2.33;;;2.10;;
9526;SDS011;4802;51.494;6.770;2023-04-15T04:36:11;4.03;;;3.63;;
9526;SDS011;4802;51.494;6.770;2023-04-15T04:38:40;3.53;;;3.17;;
9526;SDS011;4802;51.494;6.770;2023-04-15T04:41:09;6.10;;;3.33;;
9526;SDS011;4802;51.494;6.770;2023-04-15T04:43:40;3.23;;;3.10;;
9526;SDS011;4802;51.494;6.770;2023-04-15T04:46:09;5.07;;;3.83;;
9526;SDS011;4802;51.494;6.770;2023-04-15T04:48:38;4.27;;;3.83;;
9526;SDS011;4802;51.494;6.770;2023-04-15T04:51:07;3.90;;;3.13;;
9526;SDS011;4802;51.494;6.770;2023-04-15T04:53:36;3.10;;;2.97;;
9526;SDS011;4802;51.494;6.770;2023-04-15T04:56:06;6.07;;;4.10;;
9526;SDS011;4802;51.494;6.770;2023-04-15T04:58:35;7.93;;;3.57;;
9526;SDS011;4802;51.494;6.770;2023-04-15T05:01:10;4.23;;;3.60;;
9526;SDS011;4802;51.494;6.770;2023-04-15T05:03:39;2.93;;;2.73;;
9526;SDS011;4802;51.494;6.770;2023-04-15T05:06:09;3.40;;;3.13;;
9526;SDS011;4802;51.494;6.770;2023-04-15T05:08:38;2.07;;;1.97;;
9526;SDS011;4802;51.494;6.770;2023-04-15T05:11:08;3.63;;;3.33;;
9526;SDS011;4802;51.494;6.770;2023-04-15T05:13:37;6.37;;;3.97;;
9526;SDS011;4802;51.494;6.770;2023-04-15T05:16:06;6.47;;;4.13;;
9526;SDS011;4802;51.494;6.770;2023-04-15T05:18:37;4.70;;;4.30;;
9526;SDS011;4802;51.494;6.770;2023-04-15T05:21:05;2.47;;;2.37;;
9526;SDS011;4802;51.494;6.770;2023-04-15T05:23:34;2.57;;;2.37;;
9526;SDS011;4802;51.494;6.770;2023-04-15T05:26:03;4.80;;;4.40;;
9526;SDS011;4802;51.494;6.770;2023-04-15T05:28:32;5.53;;;4.67;;
9526;SDS011;4802;51.494;6.770;2023-04-15T05:31:01;4.03;;;3.83;;
9526;SDS011;4802;51.494;6.770;2023-04-15T05:33:30;3.37;;;3.13;;
9526;SDS011;4802;51.494;6.770;2023-04-15T05:36:01;4.20;;;3.30;;
9526;SDS011;4802;51.494;6.770;2023-04-15T05:38:30;6.10;;;5.27;;
9526;SDS011;4802;51.494;6.770;2023-04-15T05:40:59;7.53;;;4.80;;
9526;SDS011;4802;51.494;6.770;2023-04-15T05:43:28;4.97;;;4.03;;
9526;SDS011;4802;51.494;6.770;2023-04-15T05:45:57;6.40;;;5.30;;
9526;SDS011;4802;51.494;6.770;2023-04-15T05:48:26;5.60;;;5.07;;
9526;SDS011;4802;51.494;6.770;2023-04-15T05:50:55;5.80;;;4.40;;
9526;SDS011;4802;51.494;6.770;2023-04-15T05:53:28;5.20;;;4.70;;
9526;SDS011;4802;51.494;6.770;2023-04-15T05:55:58;6.57;;;5.83;;
9526;SDS011;4802;51.494;6.770;2023-04-15T05:58:27;4.23;;;3.67;;
9526;SDS011;4802;51.494;6.770;2023-04-15T06:00:56;5.33;;;4.73;;
9526;SDS011;4802;51.494;6.770;2023-04-15T06:03:25;4.43;;;4.03;;
9526;SDS011;4802;51.494;6.770;2023-04-15T06:05:55;4.33;;;2.60;;
9526;SDS011;4802;51.494;6.770;2023-04-15T06:08:24;6.77;;;4.67;;
9526;SDS011;4802;51.494;6.770;2023-04-15T06:10:55;4.77;;;4.10;;
9526;SDS011;4802;51.494;6.770;2023-04-15T06:13:24;3.73;;;3.53;;
9526;SDS011;4802;51.494;6.770;2023-04-15T06:15:53;6.63;;;4.73;;
9526;SDS011;4802;51.494;6.770;2023-04-15T06:18:22;7.70;;;5.03;;
9526;SDS011;4802;51.494;6.770;2023-04-15T06:20:55;5.07;;;4.63;;
9526;SDS011;4802;51.494;6.770;2023-04-15T06:23:47;6.40;;;4.23;;
9526;SDS011;4802;51.494;6.770;2023-04-15T06:26:19;4.87;;;4.07;;
9526;SDS011;4802;51.494;6.770;2023-04-15T06:28:48;4.83;;;4.33;;
9526;SDS011;4802;51.494;6.770;2023-04-15T06:31:17;5.80;;;4.77;;
9526;SDS011;4802;51.494;6.770;2023-04-15T06:33:47;7.93;;;5.00;;
9526;SDS011;4802;51.494;6.770;2023-04-15T06:36:18;8.23;;;3.87;;
9526;SDS011;4802;51.494;6.770;2023-04-15T06:38:47;6.43;;;5.50;;
9526;SDS011;4802;51.494;6.770;2023-04-15T06:41:16;6.20;;;4.00;;
9526;SDS011;4802;51.494;6.770;2023-04-15T06:43:48;5.40;;;4.53;;
9526;SDS011;4802;51.494;6.770;2023-04-15T06:46:19;9.33;;;5.63;;
9526;SDS011;4802;51.494;6.770;2023-04-15T06:48:48;8.73;;;6.00;;
9526;SDS011;4802;51.494;6.770;2023-04-15T06:51:18;4.50;;;4.13;;
9526;SDS011;4802;51.494;6.770;2023-04-15T06:53:47;6.23;;;5.20;;
9526;SDS011;4802;51.494;6.770;2023-04-15T06:56:21;7.43;;;4.63;;
9526;SDS011;4802;51.494;6.770;2023-04-15T06:58:55;8.67;;;6.17;;
9526;SDS011;4802;51.494;6.770;2023-04-15T07:01:25;6.33;;;5.30;;
9526;SDS011;4802;51.494;6.770;2023-04-15T07:03:56;4.90;;;4.43;;
9526;SDS011;4802;51.494;6.770;2023-04-15T07:06:28;5.30;;;4.33;;
9526;SDS011;4802;51.494;6.770;2023-04-15T07:08:58;6.60;;;4.80;;
9526;SDS011;4802;51.494;6.770;2023-04-15T07:11:27;6.03;;;3.80;;
9526;SDS011;4802;51.494;6.770;2023-04-15T07:13:58;5.70;;;3.30;;
9526;SDS011;4802;51.494;6.770;2023-04-15T07:16:27;5.07;;;3.37;;
9526;SDS011;4802;51.494;6.770;2023-04-15T07:18:56;5.70;;;3.83;;
9526;SDS011;4802;51.494;6.770;2023-04-15T07:21:26;3.70;;;2.60;;
9526;SDS011;4802;51.494;6.770;2023-04-15T07:23:57;2.50;;;2.37;;
9526;SDS011;4802;51.494;6.770;2023-04-15T07:26:27;4.90;;;3.87;;
9526;SDS011;4802;51.494;6.770;2023-04-15T07:28:57;3.30;;;3.10;;
9526;SDS011;4802;51.494;6.770;2023-04-15T07:31:27;4.93;;;3.30;;
9526;SDS011;4802;51.494;6.770;2023-04-15T07:33:56;3.57;;;2.67;;
9526;SDS011;4802;51.494;6.770;2023-04-15T07:36:25;2.27;;;2.10;;
9526;SDS011;4802;51.494;6.770;2023-04-15T07:38:54;2.50;;;2.30;;
9526;SDS011;4802;51.494;6.770;2023-04-15T07:41:25;4.53;;;2.20;;
9526;SDS011;4802;51.494;6.770;2023-04-15T07:43:54;3.43;;;2.17;;
9526;SDS011;4802;51.494;6.770;2023-04-15T07:46:25;6.30;;;2.40;;
9526;SDS011;4802;51.494;6.770;2023-04-15T07:48:55;3.23;;;2.33;;
9526;SDS011;4802;51.494;6.770;2023-04-15T07:51:24;4.77;;;2.00;;
9526;SDS011;4802;51.494;6.770;2023-04-15T07:53:54;1.87;;;1.77;;
9526;SDS011;4802;51.494;6.770;2023-04-15T07:56:23;4.97;;;2.77;;
9526;SDS011;4802;51.494;6.770;2023-04-15T07:58:55;2.47;;;2.37;;
9526;SDS011;4802;51.494;6.770;2023-04-15T08:01:26;2.63;;;2.20;;
9526;SDS011;4802;51.494;6.770;2023-04-15T08:03:56;8.77;;;2.50;;
9526;SDS011;4802;51.494;6.770;2023-04-15T08:06:26;2.70;;;2.50;;
9526;SDS011;4802;51.494;6.770;2023-04-15T08:08:56;1.63;;;1.53;;
9526;SDS011;4802;51.494;6.770;2023-04-15T08:11:26;2.40;;;2.20;;
9526;SDS011;4802;51.494;6.770;2023-04-15T08:13:55;4.77;;;2.37;;
9526;SDS011;4802;51.494;6.770;2023-04-15T08:16:27;3.63;;;2.47;;
9526;SDS011;4802;51.494;6.770;2023-04-15T08:18:57;2.90;;;1.93;;
9526;SDS011;4802;51.494;6.770;2023-04-15T08:21:28;4.10;;;2.50;;
9526;SDS011;4802;51.494;6.770;2023-04-15T08:23:59;1.47;;;1.30;;
9526;SDS011;4802;51.494;6.770;2023-04-15T08:26:29;1.90;;;1.80;;
9526;SDS011;4802;51.494;6.770;2023-04-15T08:28:58;6.37;;;2.87;;
9526;SDS011;4802;51.494;6.770;2023-04-15T08:31:30;2.60;;;1.80;;
9526;SDS011;4802;51.494;6.770;2023-04-15T08:34:00;1.90;;;1.43;;
9526;SDS011;4802;51.494;6.770;2023-04-15T08:36:35;2.80;;;1.67;;
9526;SDS011;4802;51.494;6.770;2023-04-15T08:39:05;2.70;;;2.50;;
9526;SDS011;4802;51.494;6.770;2023-04-15T08:41:36;1.90;;;1.77;;
9526;SDS011;4802;51.494;6.770;2023-04-15T08:44:08;1.70;;;1.60;;
9526;SDS011;4802;51.494;6.770;2023-04-15T08:46:39;2.03;;;1.50;;
9526;SDS011;4802;51.494;6.770;2023-04-15T08:49:11;1.00;;;1.00;;
9526;SDS011;4802;51.494;6.770;2023-04-15T08:51:40;1.63;;;1.53;;
9526;SDS011;4802;51.494;6.770;2023-04-15T08:54:11;1.87;;;1.50;;
9526;SDS011;4802;51.494;6.770;2023-04-15T08:56:41;1.57;;;1.47;;
9526;SDS011;4802;51.494;6.770;2023-04-15T08:59:11;3.00;;;2.17;;
9526;SDS011;4802;51.494;6.770;2023-04-15T09:01:56;5.20;;;2.37;;
9526;SDS011;4802;51.494;6.770;2023-04-15T09:04:26;3.27;;;2.93;;
9526;SDS011;4802;51.494;6.770;2023-04-15T09:06:57;2.80;;;2.17;;
9526;SDS011;4802;51.494;6.770;2023-04-15T09:09:35;2.70;;;2.03;;
9526;SDS011;4802;51.494;6.770;2023-04-15T09:12:09;1.73;;;1.63;;
9526;SDS011;4802;51.494;6.770;2023-04-15T09:14:44;2.37;;;2.17;;
9526;SDS011;4802;51.494;6.770;2023-04-15T09:17:31;1.70;;;1.60;;
9526;SDS011;4802;51.494;6.770;2023-04-15T09:20:08;2.20;;;1.87;;
9526;SDS011;4802;51.494;6.770;2023-04-15T09:22:39;2.90;;;1.60;;
9526;SDS011;4802;51.494;6.770;2023-04-15T09:27:55;1.37;;;1.27;;
9526;SDS011;4802;51.494;6.770;2023-04-15T09:30:26;1.57;;;1.47;;
9526;SDS011;4802;51.494;6.770;2023-04-15T09:32:57;1.97;;;1.87;;
9526;SDS011;4802;51.494;6.770;2023-04-15T09:35:33;2.30;;;2.10;;
9526;SDS011;4802;51.494;6.770;2023-04-15T09:38:08;4.27;;;2.50;;
9526;SDS011;4802;51.494;6.770;2023-04-15T09:40:39;2.00;;;1.90;;
9526;SDS011;4802;51.494;6.770;2023-04-15T09:43:09;1.63;;;1.50;;
9526;SDS011;4802;51.494;6.770;2023-04-15T09:45:57;1.90;;;1.80;;
9526;SDS011;4802;51.494;6.770;2023-04-15T09:48:33;4.00;;;1.87;;
9526;SDS011;4802;51.494;6.770;2023-04-15T09:51:07;3.00;;;2.63;;
9526;SDS011;4802;51.494;6.770;2023-04-15T09:53:39;2.97;;;2.70;;
9526;SDS011;4802;51.494;6.770;2023-04-15T09:56:36;2.67;;;1.90;;
9526;SDS011;4802;51.494;6.770;2023-04-15T09:59:08;2.40;;;2.30;;
9526;SDS011;4802;51.494;6.770;2023-04-15T10:01:40;3.17;;;2.50;;
9526;SDS011;4802;51.494;6.770;2023-04-15T10:04:16;2.20;;;2.10;;
9526;SDS011;4802;51.494;6.770;2023-04-15T10:06:49;2.57;;;1.87;;
9526;SDS011;4802;51.494;6.770;2023-04-15T10:09:22;1.83;;;1.73;;
9526;SDS011;4802;51.494;6.770;2023-04-15T10:11:52;2.50;;;2.40;;
9526;SDS011;4802;51.494;6.770;2023-04-15T10:14:32;2.33;;;2.10;;
9526;SDS011;4802;51.494;6.770;2023-04-15T10:17:07;2.53;;;2.33;;
9526;SDS011;4802;51.494;6.770;2023-04-15T10:19:46;2.23;;;2.13;;
9526;SDS011;4802;51.494;6.770;2023-04-15T10:22:21;4.63;;;3.07;;
9526;SDS011;4802;51.494;6.770;2023-04-15T10:24:54;2.07;;;1.97;;
9526;SDS011;4802;51.494;6.770;2023-04-15T10:27:30;2.33;;;2.23;;
9526;SDS011;4802;51.494;6.770;2023-04-15T10:30:08;1.87;;;1.77;;
9526;SDS011;4802;51.494;6.770;2023-04-15T10:32:40;3.00;;;2.80;;
9526;SDS011;4802;51.494;6.770;2023-04-15T10:35:14;1.80;;;1.70;;
9526;SDS011;4802;51.494;6.770;2023-04-15T10:37:44;2.63;;;2.43;;
9526;SDS011;4802;51.494;6.770;2023-04-15T10:40:25;2.07;;;1.83;;
9526;SDS011;4802;51.494;6.770;2023-04-15T10:43:02;5.60;;;2.97;;
9526;SDS011;4802;51.494;6.770;2023-04-15T10:45:43;3.37;;;2.33;;
9526;SDS011;4802;51.494;6.770;2023-04-15T10:48:17;3.13;;;2.57;;
9526;SDS011;4802;51.494;6.770;2023-04-15T10:51:04;2.37;;;1.90;;
9526;SDS011;4802;51.494;6.770;2023-04-15T10:53:34;1.63;;;1.53;;
9526;SDS011;4802;51.494;6.770;2023-04-15T10:56:10;2.97;;;2.10;;
9526;SDS011;4802;51.494;6.770;2023-04-15T10:58:53;2.70;;;2.50;;
9526;SDS011;4802;51.494;6.770;2023-04-15T11:04:56;1.73;;;1.63;;
9526;SDS011;4802;51.494;6.770;2023-04-15T11:07:40;5.43;;;2.00;;
9526;SDS011;4802;51.494;6.770;2023-04-15T11:13:01;2.10;;;1.50;;
9526;SDS011;4802;51.494;6.770;2023-04-15T11:15:35;2.40;;;2.20;;
9526;SDS011;4802;51.494;6.770;2023-04-15T11:18:08;3.27;;;1.80;;
9526;SDS011;4802;51.494;6.770;2023-04-15T11:20:41;2.33;;;2.23;;
9526;SDS011;4802;51.494;6.770;2023-04-15T11:23:13;1.27;;;1.20;;
9526;SDS011;4802;51.494;6.770;2023-04-15T11:25:46;2.20;;;2.00;;
9526;SDS011;4802;51.494;6.770;2023-04-15T11:28:19;2.03;;;1.70;;
9526;SDS011;4802;51.494;6.770;2023-04-15T11:30:48;1.93;;;1.80;;
9526;SDS011;4802;51.494;6.770;2023-04-15T11:33:20;1.80;;;1.70;;
9526;SDS011;4802;51.494;6.770;2023-04-15T11:35:51;4.23;;;2.70;;
9526;SDS011;4802;51.494;6.770;2023-04-15T11:38:25;1.40;;;1.30;;
9526;SDS011;4802;51.494;6.770;2023-04-15T11:40:54;1.87;;;1.63;;
9526;SDS011;4802;51.494;6.770;2023-04-15T11:43:25;2.37;;;2.23;;
9526;SDS011;4802;51.494;6.770;2023-04-15T11:45:55;2.53;;;2.33;;
9526;SDS011;4802;51.494;6.770;2023-04-15T11:48:26;2.70;;;1.80;;
9526;SDS011;4802;51.494;6.770;2023-04-15T11:50:57;2.10;;;2.00;;
9526;SDS011;4802;51.494;6.770;2023-04-15T11:53:41;3.13;;;1.73;;
9526;SDS011;4802;51.494;6.770;2023-04-15T11:56:17;1.70;;;1.60;;
9526;SDS011;4802;51.494;6.770;2023-04-15T11:58:47;2.83;;;2.13;;
9526;SDS011;4802;51.494;6.770;2023-04-15T12:01:17;1.60;;;1.50;;
9526;SDS011;4802;51.494;6.770;2023-04-15T12:03:49;2.30;;;1.70;;
9526;SDS011;4802;51.494;6.770;2023-04-15T12:06:20;2.60;;;1.83;;
9526;SDS011;4802;51.494;6.770;2023-04-15T12:08:58;2.50;;;2.30;;
9526;SDS011;4802;51.494;6.770;2023-04-15T12:11:37;1.73;;;1.63;;
9526;SDS011;4802;51.494;6.770;2023-04-15T12:14:18;2.77;;;2.00;;
9526;SDS011;4802;51.494;6.770;2023-04-15T12:16:48;1.50;;;1.40;;
9526;SDS011;4802;51.494;6.770;2023-04-15T12:19:25;1.80;;;1.47;;
9526;SDS011;4802;51.494;6.770;2023-04-15T12:21:56;1.30;;;1.20;;
9526;SDS011;4802;51.494;6.770;2023-04-15T12:24:34;2.20;;;2.10;;
9526;SDS011;4802;51.494;6.770;2023-04-15T12:27:08;1.97;;;1.87;;
9526;SDS011;4802;51.494;6.770;2023-04-15T12:29:38;1.57;;;1.47;;
9526;SDS011;4802;51.494;6.770;2023-04-15T12:32:09;1.43;;;1.33;;
9526;SDS011;4802;51.494;6.770;2023-04-15T12:34:48;2.27;;;2.07;;
9526;SDS011;4802;51.494;6.770;2023-04-15T12:37:18;1.50;;;1.40;;
9526;SDS011;4802;51.494;6.770;2023-04-15T12:39:53;1.93;;;1.83;;
9526;SDS011;4802;51.494;6.770;2023-04-15T12:42:23;1.50;;;1.40;;
9526;SDS011;4802;51.494;6.770;2023-04-15T12:44:59;9.90;;;1.57;;
9526;SDS011;4802;51.494;6.770;2023-04-15T12:47:36;2.67;;;1.43;;
9526;SDS011;4802;51.494;6.770;2023-04-15T12:50:06;1.60;;;1.50;;
9526;SDS011;4802;51.494;6.770;2023-04-15T12:52:37;1.63;;;1.53;;
9526;SDS011;4802;51.494;6.770;2023-04-15T12:55:19;2.60;;;1.67;;
9526;SDS011;4802;51.494;6.770;2023-04-15T12:57:53;3.13;;;1.83;;
9526;SDS011;4802;51.494;6.770;2023-04-15T13:00:26;1.73;;;1.70;;
9526;SDS011;4802;51.494;6.770;2023-04-15T13:02:56;2.20;;;1.70;;
9526;SDS011;4802;51.494;6.770;2023-04-15T13:05:32;2.03;;;1.73;;
9526;SDS011;4802;51.494;6.770;2023-04-15T13:08:04;2.33;;;1.77;;
9526;SDS011;4802;51.494;6.770;2023-04-15T13:10:39;2.50;;;1.30;;
9526;SDS011;4802;51.494;6.770;2023-04-15T13:13:09;2.30;;;1.87;;
9526;SDS011;4802;51.494;6.770;2023-04-15T13:15:40;3.97;;;2.60;;
9526;SDS011;4802;51.494;6.770;2023-04-15T13:18:11;1.47;;;1.30;;
9526;SDS011;4802;51.494;6.770;2023-04-15T13:20:41;1.70;;;1.10;;
9526;SDS011;4802;51.494;6.770;2023-04-15T13:23:13;4.53;;;1.77;;
9526;SDS011;4802;51.494;6.770;2023-04-15T13:25:47;1.30;;;1.27;;
9526;SDS011;4802;51.494;6.770;2023-04-15T13:28:18;1.50;;;1.40;;
9526;SDS011;4802;51.494;6.770;2023-04-15T13:30:48;2.80;;;2.00;;
9526;SDS011;4802;51.494;6.770;2023-04-15T13:33:21;1.20;;;1.20;;
9526;SDS011;4802;51.494;6.770;2023-04-15T13:35:51;1.33;;;1.23;;
9526;SDS011;4802;51.494;6.770;2023-04-15T13:38:20;1.60;;;1.50;;
9526;SDS011;4802;51.494;6.770;2023-04-15T13:40:51;1.47;;;1.47;;
9526;SDS011;4802;51.494;6.770;2023-04-15T13:43:23;2.37;;;1.43;;
9526;SDS011;4802;51.494;6.770;2023-04-15T13:45:52;2.83;;;1.60;;
9526;SDS011;4802;51.494;6.770;2023-04-15T13:48:21;1.80;;;1.70;;
9526;SDS011;4802;51.494;6.770;2023-04-15T13:50:52;1.60;;;1.50;;
9526;SDS011;4802;51.494;6.770;2023-04-15T13:53:21;5.40;;;2.03;;
9526;SDS011;4802;51.494;6.770;2023-04-15T13:56:17;4.63;;;1.83;;
9526;SDS011;4802;51.494;6.770;2023-04-15T13:58:48;1.60;;;1.60;;
9526;SDS011;4802;51.494;6.770;2023-04-15T14:01:20;2.00;;;1.90;;
9526;SDS011;4802;51.494;6.770;2023-04-15T14:03:50;2.00;;;1.90;;
9526;SDS011;4802;51.494;6.770;2023-04-15T14:06:22;2.03;;;1.80;;
9526;SDS011;4802;51.494;6.770;2023-04-15T14:09:01;1.50;;;1.40;;
9526;SDS011;4802;51.494;6.770;2023-04-15T14:11:32;7.20;;;2.07;;
9526;SDS011;4802;51.494;6.770;2023-04-15T14:14:02;1.03;;;1.03;;
9526;SDS011;4802;51.494;6.770;2023-04-15T14:16:32;1.10;;;1.10;;
9526;SDS011;4802;51.494;6.770;2023-04-15T14:19:02;1.30;;;1.20;;
9526;SDS011;4802;51.494;6.770;2023-04-15T14:21:35;0.83;;;0.83;;
9526;SDS011;4802;51.494;6.770;2023-04-15T14:24:04;1.80;;;1.23;;
9526;SDS011;4802;51.494;6.770;2023-04-15T14:26:36;1.37;;;1.10;;
9526;SDS011;4802;51.494;6.770;2023-04-15T14:29:06;1.33;;;1.23;;
9526;SDS011;4802;51.494;6.770;2023-04-15T14:31:41;1.23;;;1.13;;
9526;SDS011;4802;51.494;6.770;2023-04-15T14:34:31;0.80;;;0.80;;
9526;SDS011;4802;51.494;6.770;2023-04-15T14:37:01;1.40;;;1.30;;
9526;SDS011;4802;51.494;6.770;2023-04-15T14:39:35;1.60;;;1.50;;
9526;SDS011;4802;51.494;6.770;2023-04-15T14:42:09;1.00;;;1.00;;
9526;SDS011;4802;51.494;6.770;2023-04-15T14:44:41;1.10;;;1.10;;
9526;SDS011;4802;51.494;6.770;2023-04-15T14:47:11;2.50;;;1.93;;
9526;SDS011;4802;51.494;6.770;2023-04-15T14:50:08;2.70;;;1.23;;
9526;SDS011;4802;51.494;6.770;2023-04-15T14:52:38;1.97;;;1.93;;
9526;SDS011;4802;51.494;6.770;2023-04-15T14:55:15;17.27;;;1.20;;
9526;SDS011;4802;51.494;6.770;2023-04-15T14:57:46;1.90;;;1.70;;
9526;SDS011;4802;51.494;6.770;2023-04-15T15:00:19;1.70;;;1.60;;
9526;SDS011;4802;51.494;6.770;2023-04-15T15:02:54;1.17;;;1.17;;
9526;SDS011;4802;51.494;6.770;2023-04-15T15:05:54;1.10;;;1.00;;
9526;SDS011;4802;51.494;6.770;2023-04-15T15:08:26;1.83;;;1.27;;
9526;SDS011;4802;51.494;6.770;2023-04-15T15:11:21;1.50;;;1.40;;
9526;SDS011;4802;51.494;6.770;2023-04-15T15:14:07;1.90;;;1.73;;
9526;SDS011;4802;51.494;6.770;2023-04-15T15:16:51;1.27;;;1.17;;
9526;SDS011;4802;51.494;6.770;2023-04-15T15:19:54;2.73;;;1.50;;
9526;SDS011;4802;51.494;6.770;2023-04-15T15:25:37;1.37;;;1.27;;
9526;SDS011;4802;51.494;6.770;2023-04-15T15:28:16;1.47;;;0.97;;
9526;SDS011;4802;51.494;6.770;2023-04-15T15:31:07;1.10;;;1.10;;
9526;SDS011;4802;51.494;6.770;2023-04-15T15:33:52;1.60;;;1.50;;
9526;SDS011;4802;51.494;6.770;2023-04-15T15:36:38;3.30;;;1.13;;
9526;SDS011;4802;51.494;6.770;2023-04-15T15:39:38;2.27;;;2.07;;
9526;SDS011;4802;51.494;6.770;2023-04-15T15:45:35;1.70;;;0.93;;
9526;SDS011;4802;51.494;6.770;2023-04-15T15:48:10;1.07;;;0.77;;
9526;SDS011;4802;51.494;6.770;2023-04-15T15:51:04;1.03;;;0.63;;
9526;SDS011;4802;51.494;6.770;2023-04-15T15:54:01;1.43;;;1.33;;
9526;SDS011;4802;51.494;6.770;2023-04-15T15:56:38;1.77;;;1.67;;
9526;SDS011;4802;51.494;6.770;2023-04-15T15:59:35;1.10;;;1.10;;
9526;SDS011;4802;51.494;6.770;2023-04-15T16:05:40;1.50;;;1.20;;